^^
Grace C. Lehan Memorial Weather Station Historical Data
Daily Summary for August 25, 2021 Units:  English    Metric   Both
Daily Weekly Monthly Yearly
  High: Low: Average:
Temperature: 95.1 °F 68.1 °F 80.9 °F
Dew Point: 74.7 °F 60.4 °F 69.9 °F
Humidity: 95% 32.2% 72%
Wind Speed: 0.4mph 0mph 0mph
Wind Gust: 4mph - -
Wind- - WSW
Pressure: 30.08 in 29.99 in -
Precipitation: 0.00 in    
 
 
Tabular Data for August 25, 2021
Time Temperature Dew Point Pressure Wind Wind Speed Wind Gust Humidity Rainfall Rate (Hourly) solar
00:00 74.2 °F 70.8 °F 29.99 in Calm   1 mph 89% 0.00 in 0 W/m2
00:09 74.1 °F 70.6 °F 30.00 in Calm   2 mph 89% 0.00 in 0 W/m2
00:14 74 °F 70.6 °F 30.00 in Calm   2 mph 89% 0.00 in 0 W/m2
00:19 74 °F 70.6 °F 29.99 in Calm   2 mph 89% 0.00 in 0 W/m2
00:24 74 °F 70.6 °F 29.99 in Calm   2 mph 89% 0.00 in 0 W/m2
00:29 74 °F 70.4 °F 30.00 in Calm   2 mph 88.6% 0.00 in 0 W/m2
00:34 73.9 °F 70.2 °F 30.00 in Calm   2 mph 88% 0.00 in 0 W/m2
00:39 73.9 °F 70.1 °F 29.99 in Calm     88% 0.00 in 0 W/m2
00:44 73.9 °F 70.1 °F 29.99 in Calm     88% 0.00 in 0 W/m2
00:49 73.8 °F 70 °F 29.99 in Calm     88% 0.00 in 0 W/m2
00:54 73.8 °F 70.3 °F 30.00 in Calm     88.9% 0.00 in 0 W/m2
00:59 73.6 °F 70.2 °F 30.00 in Calm     89% 0.00 in 0 W/m2
01:04 73.4 °F 70 °F 29.99 in Calm     89% 0.00 in 0 W/m2
01:09 73.2 °F 69.8 °F 29.99 in Calm     89% 0.00 in 0 W/m2
01:14 73.1 °F 69.7 °F 30.00 in Calm     89% 0.00 in 0 W/m2
01:19 73 °F 69.6 °F 29.99 in Calm     89% 0.00 in 0 W/m2
01:24 72.9 °F 69.5 °F 30.00 in Calm     89% 0.00 in 0 W/m2
01:29 72.8 °F 69.4 °F 30.00 in Calm     89% 0.00 in 0 W/m2
01:34 72.7 °F 69.3 °F 30.00 in Calm     89% 0.00 in 0 W/m2
01:39 72.6 °F 69.2 °F 30.00 in Calm   1 mph 89% 0.00 in 0 W/m2
01:44 72.5 °F 69.1 °F 29.99 in Calm   1 mph 89% 0.00 in 0 W/m2
01:49 72.5 °F 69 °F 30.00 in Calm   1 mph 89% 0.00 in 0 W/m2
01:54 72.4 °F 69.2 °F 30.00 in Calm   1 mph 89.8% 0.00 in 0 W/m2
01:59 72.3 °F 69.2 °F 30.00 in Calm   1 mph 90% 0.00 in 0 W/m2
02:04 72.2 °F 69.1 °F 30.00 in Calm   1 mph 90% 0.00 in 0 W/m2
02:09 72.1 °F 69 °F 30.00 in Calm     90% 0.00 in 0 W/m2
02:14 72 °F 68.9 °F 30.00 in Calm     90% 0.00 in 0 W/m2
02:19 71.9 °F 68.8 °F 29.99 in WNW 0.1 mph 2 mph 90% 0.00 in 0 W/m2
02:24 71.8 °F 68.7 °F 30.00 in Calm   2 mph 90% 0.00 in 0 W/m2
02:29 71.6 °F 68.6 °F 30.00 in Calm   2 mph 90% 0.00 in 0 W/m2
02:34 71.6 °F 68.5 °F 30.00 in Calm   2 mph 90.2% 0.00 in 0 W/m2
02:39 71.5 °F 68.7 °F 30.00 in Calm     90.8% 0.00 in 0 W/m2
02:44 71.4 °F 68.6 °F 30.00 in Calm     91% 0.00 in 0 W/m2
02:49 71.4 °F 68.6 °F 30.00 in Calm     91% 0.00 in 0 W/m2
02:54 71.3 °F 68.5 °F 30.00 in Calm     91% 0.00 in 0 W/m2
02:59 71.2 °F 68.4 °F 30.00 in Calm     91% 0.00 in 0 W/m2
03:04 71.2 °F 68.3 °F 30.00 in Calm     90.7% 0.00 in 0 W/m2
03:09 71.1 °F 68.3 °F 30.00 in Calm     91% 0.00 in 0 W/m2
03:14 71.1 °F 68.3 °F 30.00 in Calm     91% 0.00 in 0 W/m2
03:19 71 °F 68 °F 30.00 in Calm     90.5% 0.00 in 0 W/m2
03:24 70.8 °F 67.8 °F 30.00 in Calm     90% 0.00 in 0 W/m2
03:29 70.8 °F 67.7 °F 30.00 in Calm     90% 0.00 in 0 W/m2
03:34 70.7 °F 67.6 °F 30.00 in Calm     90% 0.00 in 0 W/m2
03:39 70.6 °F 67.5 °F 30.00 in Calm     90% 0.00 in 0 W/m2
03:44 70.6 °F 67.5 °F 30.00 in Calm     90% 0.00 in 0 W/m2
03:49 70.6 °F 67.5 °F 30.00 in Calm     90% 0.00 in 0 W/m2
03:54 70.6 °F 67.5 °F 30.00 in Calm     90% 0.00 in 0 W/m2
03:59 70.6 °F 67.5 °F 30.00 in Calm     90% 0.00 in 0 W/m2
04:00 70.6 °F 67.5 °F 30.00 in Calm     90% 0.00 in 0 W/m2
04:09 70.6 °F 67.3 °F 30.00 in Calm     89.4% 0.00 in 0 W/m2
04:14 70.6 °F 67.5 °F 30.00 in Calm     90% 0.00 in 0 W/m2
04:19 70.5 °F 67.4 °F 30.00 in Calm     90% 0.00 in 0 W/m2
04:24 70.4 °F 67.3 °F 30.00 in Calm     90% 0.00 in 0 W/m2
04:29 70.3 °F 67.2 °F 30.00 in Calm     90% 0.00 in 0 W/m2
04:34 70.2 °F 67.1 °F 30.00 in Calm     90% 0.00 in 0 W/m2
04:39 70.1 °F 67 °F 30.00 in Calm     90% 0.00 in 0 W/m2
04:44 69.9 °F 66.9 °F 30.00 in Calm     90% 0.00 in 0 W/m2
04:49 69.8 °F 66.8 °F 30.01 in Calm     90% 0.00 in 0 W/m2
04:54 69.7 °F 66.6 °F 30.01 in Calm     90% 0.00 in 0 W/m2
04:59 69.5 °F 66.5 °F 30.01 in Calm     90% 0.00 in 0 W/m2
05:04 69.4 °F 66.4 °F 30.01 in Calm     90% 0.00 in 0 W/m2
05:09 69.3 °F 66.6 °F 30.01 in Calm     91% 0.00 in 0 W/m2
05:14 69.2 °F 66.5 °F 30.01 in Calm     91% 0.00 in 0 W/m2
05:19 69.1 °F 66.4 °F 30.01 in Calm     91.1% 0.00 in 0 W/m2
05:24 69 °F 66.3 °F 30.02 in Calm     91.1% 0.00 in 0 W/m2
05:29 68.9 °F 66.2 °F 30.02 in Calm     91.1% 0.00 in 0 W/m2
05:34 68.9 °F 66.4 °F 30.02 in Calm     92% 0.00 in 0 W/m2
05:39 68.8 °F 66.4 °F 30.02 in Calm     92% 0.00 in 0 W/m2
05:44 68.7 °F 66.3 °F 30.03 in Calm     92% 0.00 in 0 W/m2
05:49 68.7 °F 66.3 °F 30.03 in Calm     92% 0.00 in 0 W/m2
05:54 68.6 °F 66.2 °F 30.03 in Calm     92% 0.00 in 0 W/m2
05:59 68.5 °F 66.1 °F 30.03 in Calm     92% 0.00 in 0 W/m2
06:04 68.5 °F 66 °F 30.03 in Calm     92% 0.00 in 0 W/m2
06:09 68.4 °F 66 °F 30.04 in Calm     92% 0.00 in 0 W/m2
06:14 68.4 °F 66.2 °F 30.04 in Calm     92.8% 0.00 in 0 W/m2
06:19 68.3 °F 66.2 °F 30.04 in Calm     93% 0.00 in 5 W/m2
06:24 68.3 °F 66.2 °F 30.05 in Calm     93% 0.00 in 7 W/m2
06:29 68.2 °F 66.1 °F 30.05 in Calm     93% 0.00 in 9 W/m2
06:34 68.1 °F 66 °F 30.05 in Calm     93% 0.00 in 11 W/m2
06:39 68.1 °F 66 °F 30.05 in Calm     93% 0.00 in 14 W/m2
06:44 68.1 °F 66 °F 30.05 in Calm     93% 0.00 in 16 W/m2
06:49 68.1 °F 66 °F 30.05 in Calm     93% 0.00 in 19 W/m2
06:54 68.1 °F 66 °F 30.05 in Calm     93% 0.00 in 37 W/m2
06:59 68.2 °F 66.3 °F 30.05 in Calm     93.5% 0.00 in 123 W/m2
07:04 68.6 °F 66.8 °F 30.05 in Calm     94% 0.00 in 130 W/m2
07:09 69.1 °F 67.6 °F 30.05 in Calm     95% 0.00 in 135 W/m2
07:14 69.7 °F 68.1 °F 30.05 in Calm     94.8% 0.00 in 72 W/m2
07:19 70.1 °F 68.3 °F 30.06 in Calm     94% 0.00 in 33 W/m2
07:24 70.3 °F 68.5 °F 30.06 in Calm     94% 0.00 in 104 W/m2
07:29 70.6 °F 68.6 °F 30.06 in Calm     93.4% 0.00 in 139 W/m2
07:34 70.9 °F 68.8 °F 30.06 in Calm     93% 0.00 in 192 W/m2
07:39 71.1 °F 69 °F 30.06 in Calm     92.9% 0.00 in 192 W/m2
07:44 71.5 °F 69.1 °F 30.06 in Calm     92.3% 0.00 in 165 W/m2
07:49 71.7 °F 69 °F 30.06 in Calm     91.1% 0.00 in 144 W/m2
07:54 72 °F 69 °F 30.06 in Calm     90.5% 0.00 in 181 W/m2
07:59 72.2 °F 68.9 °F 30.06 in Calm     89.5% 0.00 in 121 W/m2
08:00 72.3 °F 68.9 °F 30.06 in Calm     89% 0.00 in 97 W/m2
08:09 72.7 °F 69.2 °F 30.07 in Calm     88.7% 0.00 in 302 W/m2
08:14 72.9 °F 68.8 °F 30.07 in Calm     87% 0.00 in 320 W/m2
08:19 73.6 °F 68.9 °F 30.07 in Calm     85.4% 0.00 in 334 W/m2
08:24 74.3 °F 69.3 °F 30.06 in Calm     84.5% 0.00 in 359 W/m2
08:29 75.3 °F 69.9 °F 30.06 in Calm     83.5% 0.00 in 378 W/m2
08:34 76.4 °F 70.7 °F 30.06 in Calm     82.3% 0.00 in 394 W/m2
08:39 77.4 °F 70.7 °F 30.06 in Calm     79.8% 0.00 in 413 W/m2
08:44 78 °F 70.5 °F 30.06 in Calm     77.6% 0.00 in 425 W/m2
08:49 78.8 °F 71.3 °F 30.06 in Calm     77.9% 0.00 in 445 W/m2
08:54 79.5 °F 71.4 °F 30.06 in Calm     76.3% 0.00 in 455 W/m2
08:59 80.1 °F 71.2 °F 30.06 in Calm     74.2% 0.00 in 455 W/m2
09:04 80.6 °F 70.9 °F 30.06 in Calm     72.5% 0.00 in 366 W/m2
09:09 80.9 °F 71.8 °F 30.06 in Calm     73.9% 0.00 in 374 W/m2
09:14 81.1 °F 72 °F 30.07 in Calm     73.7% 0.00 in 473 W/m2
09:19 81.5 °F 72.3 °F 30.07 in Calm     73.7% 0.00 in 492 W/m2
09:24 82 °F 72 °F 30.07 in Calm     71.7% 0.00 in 519 W/m2
09:29 82.3 °F 71.8 °F 30.07 in Calm     70.6% 0.00 in 522 W/m2
09:34 82.5 °F 71.7 °F 30.07 in Calm     69.9% 0.00 in 538 W/m2
09:39 82.8 °F 71.6 °F 30.07 in Calm     69% 0.00 in 555 W/m2
09:44 83.1 °F 72 °F 30.07 in Calm     69.3% 0.00 in 564 W/m2
09:49 83.5 °F 72.2 °F 30.07 in Calm     68.9% 0.00 in 575 W/m2
09:54 83.8 °F 72.2 °F 30.07 in Calm     68.1% 0.00 in 587 W/m2
09:59 84 °F 71.9 °F 30.07 in Calm     67% 0.00 in 594 W/m2
10:04 84.1 °F 71.8 °F 30.07 in Calm     66.7% 0.00 in 608 W/m2
10:09 84.3 °F 72.5 °F 30.07 in Calm     67.7% 0.00 in 617 W/m2
10:14 84.7 °F 72.9 °F 30.07 in Calm     67.8% 0.00 in 628 W/m2
10:19 84.7 °F 72.2 °F 30.07 in Calm     66.1% 0.00 in 633 W/m2
10:24 84.9 °F 73.6 °F 30.07 in Calm     68.9% 0.00 in 643 W/m2
10:29 85.4 °F 73.7 °F 30.07 in Calm     68% 0.00 in 664 W/m2
10:34 86 °F 74 °F 30.07 in Calm     67.6% 0.00 in 668 W/m2
10:39 86.5 °F 74 °F 30.07 in Calm     66.5% 0.00 in 680 W/m2
10:44 86.6 °F 73.5 °F 30.08 in Calm     65% 0.00 in 691 W/m2
10:49 86.6 °F 72.9 °F 30.08 in Calm     63.6% 0.00 in 696 W/m2
10:54 86.9 °F 73.7 °F 30.08 in Calm     64.9% 0.00 in 700 W/m2
10:59 87.3 °F 74 °F 30.08 in Calm     64.8% 0.00 in 717 W/m2
11:04 87.6 °F 73.1 °F 30.08 in Calm     62.2% 0.00 in 719 W/m2
11:09 87.7 °F 72.9 °F 30.08 in Calm     61.5% 0.00 in 729 W/m2
11:14 88 °F 73.5 °F 30.08 in Calm     62.2% 0.00 in 729 W/m2
11:19 88.3 °F 72.9 °F 30.08 in Calm     60.5% 0.00 in 744 W/m2
11:24 88.3 °F 72.7 °F 30.08 in Calm     60.2% 0.00 in 749 W/m2
11:29 88.3 °F 72.8 °F 30.08 in Calm     60.2% 0.00 in 763 W/m2
11:34 88.5 °F 72.9 °F 30.07 in Calm     60% 0.00 in 763 W/m2
11:39 88.7 °F 72.4 °F 30.07 in Calm     58.9% 0.00 in 766 W/m2
11:44 88.8 °F 72.3 °F 30.07 in Calm     58.2% 0.00 in 770 W/m2
11:49 89.1 °F 74 °F 30.07 in Calm     61.1% 0.00 in 773 W/m2
11:54 89.6 °F 74.7 °F 30.07 in Calm     61.6% 0.00 in 779 W/m2
11:59 89.6 °F 72.1 °F 30.07 in Calm     56.5% 0.00 in 793 W/m2
12:00 89.5 °F 73.3 °F 30.06 in Calm     59% 0.00 in 689 W/m2
12:09 89.3 °F 73.5 °F 30.06 in Calm     59.8% 0.00 in 239 W/m2
12:14 89.2 °F 72.9 °F 30.06 in Calm     58.9% 0.00 in 406 W/m2
12:19 89.1 °F 72.5 °F 30.06 in Calm     58.2% 0.00 in 406 W/m2
12:24 88.9 °F 73.4 °F 30.06 in Calm     60.4% 0.00 in 248 W/m2
12:29 88.6 °F 72.3 °F 30.06 in Calm     58.7% 0.00 in 167 W/m2
12:34 88.3 °F 73.1 °F 30.06 in Calm     61% 0.00 in 258 W/m2
12:39 88.3 °F 72.6 °F 30.06 in Calm     59.8% 0.00 in 824 W/m2
12:44 88.4 °F 72.3 °F 30.06 in Calm     59.1% 0.00 in 837 W/m2
12:49 88.7 °F 72.6 °F 30.06 in Calm     59.3% 0.00 in 837 W/m2
12:54 88.9 °F 72.5 °F 30.06 in Calm     58.5% 0.00 in 844 W/m2
12:59 89.5 °F 73.4 °F 30.06 in Calm     59.3% 0.00 in 853 W/m2
13:04 90.1 °F 73.2 °F 30.06 in Calm     57.8% 0.00 in 856 W/m2
13:09 90.7 °F 73.4 °F 30.06 in Calm     57.1% 0.00 in 847 W/m2
13:14 90.8 °F 72.5 °F 30.06 in Calm     55.1% 0.00 in 842 W/m2
13:19 91 °F 72.2 °F 30.05 in Calm     54.4% 0.00 in 837 W/m2
13:24 91 °F 72.2 °F 30.05 in Calm     54.2% 0.00 in 840 W/m2
13:29 91.1 °F 72.7 °F 30.05 in Calm     55% 0.00 in 847 W/m2
13:34 91.4 °F 72.2 °F 30.05 in Calm     53.7% 0.00 in 854 W/m2
13:39 91.6 °F 71.4 °F 30.05 in Calm     51.7% 0.00 in 854 W/m2
13:44 91.9 °F 71.7 °F 30.05 in Calm     51.9% 0.00 in 851 W/m2
13:49 92.1 °F 72.3 °F 30.04 in Calm     52.6% 0.00 in 851 W/m2
13:54 92.5 °F 72.2 °F 30.04 in Calm     51.7% 0.00 in 826 W/m2
13:59 92.8 °F 72 °F 30.04 in Calm     51% 0.00 in 826 W/m2
14:04 92.8 °F 71.8 °F 30.04 in Calm     50.7% 0.00 in 824 W/m2
14:09 92.8 °F 71.3 °F 30.04 in Calm     49.9% 0.00 in 823 W/m2
14:14 92.8 °F 71.6 °F 30.04 in Calm     50.3% 0.00 in 819 W/m2
14:19 92.6 °F 70.9 °F 30.04 in Calm     49.5% 0.00 in 817 W/m2
14:24 92.5 °F 70.6 °F 30.04 in Calm   1 mph 49.1% 0.00 in 812 W/m2
14:29 92.1 °F 69.8 °F 30.04 in Calm   1 mph 48.2% 0.00 in 810 W/m2
14:34 92 °F 69.9 °F 30.04 in Calm   1 mph 48.7% 0.00 in 824 W/m2
14:39 92 °F 70.8 °F 30.04 in Calm     50.2% 0.00 in 830 W/m2
14:44 92 °F 70.9 °F 30.04 in Calm     50.3% 0.00 in 803 W/m2
14:49 92 °F 70.5 °F 30.03 in Calm     49.7% 0.00 in 802 W/m2
14:54 92.3 °F 71.1 °F 30.03 in Calm     50.2% 0.00 in 796 W/m2
14:59 92.8 °F 70.6 °F 30.03 in Calm     48.7% 0.00 in 780 W/m2
15:04 93.2 °F 70 °F 30.03 in Calm   1 mph 47% 0.00 in 751 W/m2
15:09 93.6 °F 68 °F 30.03 in Calm   1 mph 43.4% 0.00 in 737 W/m2
15:14 93.8 °F 68.5 °F 30.03 in North 0.1 mph 2 mph 43.8% 0.00 in 722 W/m2
15:19 93.8 °F 68.4 °F 30.03 in Calm   2 mph 43.6% 0.00 in 715 W/m2
15:24 93.9 °F 68.4 °F 30.03 in Calm   2 mph 43.5% 0.00 in 705 W/m2
15:29 94.1 °F 68.4 °F 30.03 in Calm   2 mph 43.3% 0.00 in 691 W/m2
15:34 94.2 °F 68 °F 30.03 in Calm   2 mph 42.6% 0.00 in 682 W/m2
15:39 94.5 °F 67.1 °F 30.02 in NNW 0.4 mph 4 mph 41% 0.00 in 656 W/m2
15:44 94.6 °F 62.5 °F 30.03 in NNW 0.2 mph 4 mph 34.7% 0.00 in 640 W/m2
15:49 94.6 °F 60.4 °F 30.02 in Calm   4 mph 32.2% 0.00 in 631 W/m2
15:54 94.9 °F 61.1 °F 30.02 in Calm   4 mph 32.8% 0.00 in 613 W/m2
15:59 95 °F 61.4 °F 30.02 in Calm   4 mph 33% 0.00 in 596 W/m2
16:00 95.1 °F 62.3 °F 30.02 in Calm   4 mph 34% 0.00 in 578 W/m2
16:09 94.8 °F 63 °F 30.02 in Calm     35.1% 0.00 in 473 W/m2
16:14 94.6 °F 65.7 °F 30.02 in Calm     38.9% 0.00 in 74 W/m2
16:19 94.2 °F 66.6 °F 30.02 in Calm     40.6% 0.00 in 69 W/m2
16:24 93.8 °F 66.6 °F 30.02 in Calm     41.1% 0.00 in 67 W/m2
16:29 93.3 °F 65.5 °F 30.02 in Calm     40.1% 0.00 in 65 W/m2
16:34 92.9 °F 65.7 °F 30.02 in Calm     40.9% 0.00 in 65 W/m2
16:39 92.6 °F 64.5 °F 30.02 in Calm     39.7% 0.00 in 63 W/m2
16:44 92.2 °F 65 °F 30.02 in Calm     40.9% 0.00 in 62 W/m2
16:49 92 °F 66.3 °F 30.02 in Calm     43% 0.00 in 60 W/m2
16:54 91.8 °F 67.5 °F 30.02 in Calm     45.1% 0.00 in 58 W/m2
16:59 91.7 °F 67.6 °F 30.01 in Calm     45.3% 0.00 in 54 W/m2
17:04 91.6 °F 66.9 °F 30.01 in Calm     44.4% 0.00 in 53 W/m2
17:09 91.5 °F 68.1 °F 30.01 in Calm     46.4% 0.00 in 51 W/m2
17:14 91.4 °F 67.3 °F 30.01 in Calm     45.3% 0.00 in 49 W/m2
17:19 91.3 °F 67.6 °F 30.01 in Calm     46% 0.00 in 47 W/m2
17:24 91.1 °F 66.5 °F 30.01 in Calm     44.6% 0.00 in 47 W/m2
17:29 90.9 °F 67.4 °F 30.01 in Calm     46.1% 0.00 in 44 W/m2
17:34 90.8 °F 67.5 °F 30.01 in Calm     46.6% 0.00 in 44 W/m2
17:39 90.7 °F 68.4 °F 30.01 in Calm     48.1% 0.00 in 42 W/m2
17:44 90.6 °F 67 °F 30.01 in Calm     46% 0.00 in 40 W/m2
17:49 90.6 °F 68.3 °F 30.01 in Calm     48.1% 0.00 in 40 W/m2
17:54 90.6 °F 69.3 °F 30.01 in Calm     49.8% 0.00 in 39 W/m2
17:59 90.6 °F 70.5 °F 30.01 in Calm     51.8% 0.00 in 37 W/m2
18:04 90.5 °F 70.6 °F 30.01 in Calm     52.1% 0.00 in 35 W/m2
18:09 90.4 °F 70.9 °F 30.01 in Calm     53% 0.00 in 33 W/m2
18:14 90.3 °F 71 °F 30.01 in Calm     53.3% 0.00 in 32 W/m2
18:19 90.1 °F 71.4 °F 30.01 in Calm     54.3% 0.00 in 28 W/m2
18:24 89.9 °F 71.4 °F 30.01 in Calm     54.7% 0.00 in 28 W/m2
18:29 89.7 °F 71.5 °F 30.01 in Calm     55.2% 0.00 in 28 W/m2
18:34 89.5 °F 72 °F 30.00 in Calm     56.4% 0.00 in 26 W/m2
18:39 89.3 °F 72.5 °F 30.01 in Calm     57.7% 0.00 in 25 W/m2
18:44 89.1 °F 72.4 °F 30.01 in Calm     58% 0.00 in 23 W/m2
18:49 88.8 °F 72.7 °F 30.00 in Calm     59% 0.00 in 21 W/m2
18:54 88.5 °F 72.5 °F 30.01 in Calm     59.3% 0.00 in 19 W/m2
18:59 88.3 °F 72.6 °F 30.01 in Calm     60% 0.00 in 16 W/m2
19:04 87.9 °F 72.5 °F 30.01 in Calm     60.4% 0.00 in 14 W/m2
19:09 87.6 °F 72.8 °F 30.01 in Calm     61.5% 0.00 in 12 W/m2
19:14 87.2 °F 72.6 °F 30.01 in Calm     62% 0.00 in 11 W/m2
19:19 86.9 °F 72.6 °F 30.01 in Calm     62.7% 0.00 in 7 W/m2
19:24 86.4 °F 72.8 °F 30.01 in Calm     64.1% 0.00 in 5 W/m2
19:29 86 °F 72.6 °F 30.01 in Calm     64.5% 0.00 in 0 W/m2
19:34 85.5 °F 72.3 °F 30.02 in Calm     64.7% 0.00 in 0 W/m2
19:39 85.2 °F 72.4 °F 30.02 in Calm     65.8% 0.00 in 0 W/m2
19:44 84.8 °F 72.3 °F 30.02 in Calm     66.2% 0.00 in 0 W/m2
19:49 84.4 °F 72 °F 30.02 in Calm     66.4% 0.00 in 0 W/m2
19:54 84.1 °F 71.9 °F 30.02 in Calm     66.9% 0.00 in 0 W/m2
19:59 83.9 °F 72.1 °F 30.02 in Calm     67.8% 0.00 in 0 W/m2
20:00 83.7 °F 71.6 °F 30.02 in Calm     67% 0.00 in 0 W/m2
20:09 83.3 °F 71.6 °F 30.03 in Calm     68% 0.00 in 0 W/m2
20:14 83 °F 71.6 °F 30.03 in Calm     68.5% 0.00 in 0 W/m2
20:19 82.8 °F 72 °F 30.03 in Calm     69.9% 0.00 in 0 W/m2
20:24 82.6 °F 72.3 °F 30.03 in Calm     71.2% 0.00 in 0 W/m2
20:29 82.3 °F 72.4 °F 30.03 in Calm     72% 0.00 in 0 W/m2
20:34 82.1 °F 72.1 °F 30.03 in Calm     72% 0.00 in 0 W/m2
20:39 81.8 °F 71.9 °F 30.04 in Calm     72% 0.00 in 0 W/m2
20:44 81.6 °F 72.1 °F 30.03 in Calm     73% 0.00 in 0 W/m2
20:49 81.4 °F 71.9 °F 30.04 in Calm     73% 0.00 in 0 W/m2
20:54 81.2 °F 72.1 °F 30.04 in Calm     74% 0.00 in 0 W/m2
20:59 81 °F 72 °F 30.04 in Calm     74.2% 0.00 in 0 W/m2
21:04 80.7 °F 71.9 °F 30.04 in Calm     74.5% 0.00 in 0 W/m2
21:09 80.5 °F 71.8 °F 30.04 in Calm     75% 0.00 in 0 W/m2
21:14 80.3 °F 71.8 °F 30.05 in Calm     75.4% 0.00 in 0 W/m2
21:19 80.1 °F 72.1 °F 30.05 in Calm     76.6% 0.00 in 0 W/m2
21:24 79.8 °F 72.1 °F 30.05 in Calm     77.2% 0.00 in 0 W/m2
21:29 79.6 °F 72.2 °F 30.05 in Calm     78% 0.00 in 0 W/m2
21:34 79.4 °F 72.2 °F 30.05 in Calm     78.7% 0.00 in 0 W/m2
21:39 79.2 °F 72.2 °F 30.05 in Calm     79% 0.00 in 0 W/m2
21:44 79 °F 71.9 °F 30.05 in Calm     79% 0.00 in 0 W/m2
21:49 78.8 °F 71.7 °F 30.05 in Calm     79% 0.00 in 0 W/m2
21:54 78.5 °F 71.5 °F 30.05 in Calm     79% 0.00 in 0 W/m2
21:59 78.3 °F 71.4 °F 30.05 in Calm     79.4% 0.00 in 0 W/m2
22:04 78.2 °F 71.5 °F 30.05 in Calm     80% 0.00 in 0 W/m2
22:09 78 °F 71.4 °F 30.05 in Calm     80% 0.00 in 0 W/m2
22:14 77.9 °F 71.6 °F 30.05 in Calm     81% 0.00 in 0 W/m2
22:19 77.8 °F 71.5 °F 30.05 in Calm     81% 0.00 in 0 W/m2
22:24 77.7 °F 71.4 °F 30.05 in Calm     81% 0.00 in 0 W/m2
22:29 77.5 °F 71.3 °F 30.05 in Calm     81% 0.00 in 0 W/m2
22:34 77.4 °F 71.1 °F 30.05 in Calm     81% 0.00 in 0 W/m2
22:39 77.3 °F 71.2 °F 30.05 in Calm     81.4% 0.00 in 0 W/m2
22:44 77.2 °F 71.2 °F 30.05 in Calm     82% 0.00 in 0 W/m2
22:49 77 °F 71.1 °F 30.05 in Calm     82% 0.00 in 0 W/m2
22:54 76.9 °F 71 °F 30.05 in Calm     82% 0.00 in 0 W/m2
22:59 76.8 °F 70.8 °F 30.06 in Calm     82% 0.00 in 0 W/m2
23:04 76.6 °F 70.8 °F 30.05 in Calm     82.1% 0.00 in 0 W/m2
23:09 76.5 °F 71 °F 30.05 in Calm     83% 0.00 in 0 W/m2
23:14 76.4 °F 70.8 °F 30.05 in Calm     83% 0.00 in 0 W/m2
23:19 76.3 °F 70.7 °F 30.05 in Calm     83% 0.00 in 0 W/m2
23:24 76.1 °F 70.6 °F 30.06 in Calm     83% 0.00 in 0 W/m2
23:29 76 °F 70.8 °F 30.06 in Calm     84% 0.00 in 0 W/m2
23:34 75.9 °F 70.8 °F 30.06 in Calm     84% 0.00 in 0 W/m2
23:39 75.8 °F 70.6 °F 30.06 in Calm     84% 0.00 in 0 W/m2
23:44 75.7 °F 70.5 °F 30.06 in Calm     84% 0.00 in 0 W/m2
23:49 75.6 °F 70.4 °F 30.06 in Calm     84% 0.00 in 0 W/m2
23:54 75.5 °F 70.3 °F 30.06 in Calm     84% 0.00 in 0 W/m2
23:59 75.4 °F 70.6 °F 30.06 in Calm     85% 0.00 in 0 W/m2
Hartford County Weather
Compliments of Weather Underground - 2 mb